createdAt,value
2019-01-14T00:00:23.153Z,22.62
2019-01-14T00:01:32.331Z,22.57
2019-01-14T00:02:41.757Z,22.6
2019-01-14T00:03:50.937Z,22.49
2019-01-14T00:05:00.317Z,22.68
2019-01-14T00:06:14.819Z,22.62
2019-01-14T00:07:23.756Z,22.57
2019-01-14T00:08:33.197Z,22.52
2019-01-14T00:09:42.740Z,22.55
2019-01-14T00:10:51.921Z,22.62
2019-01-14T00:12:01.117Z,22.58
2019-01-14T00:13:10.339Z,22.57
2019-01-14T00:14:19.279Z,22.62
2019-01-14T00:15:28.457Z,22.57
2019-01-14T00:16:37.676Z,22.49
2019-01-14T00:17:46.601Z,22.49
2019-01-14T00:18:56.058Z,22.49
2019-01-14T00:20:05.535Z,22.43
2019-01-14T00:21:14.715Z,22.45
2019-01-14T00:22:23.903Z,22.37
2019-01-14T00:23:32.833Z,22.42
2019-01-14T00:24:42.006Z,22.47
2019-01-14T00:25:51.184Z,22.39
2019-01-14T00:27:00.364Z,22.42
2019-01-14T00:28:09.830Z,22.39
2019-01-14T00:29:19.019Z,22.37
2019-01-14T00:30:28.219Z,22.36
2019-01-14T00:31:37.411Z,22.36
2019-01-14T00:32:46.589Z,22.35
2019-01-14T00:33:56.288Z,22.31
2019-01-14T00:35:05.727Z,22.28
2019-01-14T00:36:21.905Z,22.33
2019-01-14T00:37:30.836Z,22.3
2019-01-14T00:38:40.517Z,22.24
2019-01-14T00:39:49.972Z,22.27
2019-01-14T00:40:58.929Z,22.25
2019-01-14T00:42:07.610Z,22.27
2019-01-14T00:43:17.043Z,22.24
2019-01-14T00:44:26.208Z,22.2
2019-01-14T00:45:35.881Z,22.18
2019-01-14T00:46:45.080Z,22.21
2019-01-14T00:47:54.507Z,22.2
2019-01-14T00:49:04.177Z,22.21
2019-01-14T00:50:13.115Z,22.15
2019-01-14T00:51:22.331Z,22.21
2019-01-14T00:52:31.758Z,22.21
2019-01-14T00:53:41.497Z,22.21
2019-01-14T00:54:50.424Z,22.25
2019-01-14T00:55:59.892Z,22.18
2019-01-14T00:57:08.829Z,22.17
2019-01-14T00:58:18.257Z,22.24
2019-01-14T00:59:27.991Z,22.17
2019-01-14T01:00:37.191Z,22.14
2019-01-14T01:01:46.899Z,22.18
2019-01-14T01:02:56.072Z,22.17
2019-01-14T01:04:04.753Z,22.14
2019-01-14T01:05:13.957Z,22.05
2019-01-14T01:06:29.320Z,22.07
2019-01-14T01:07:38.536Z,22.07
2019-01-14T01:08:47.971Z,22.03
2019-01-14T01:09:56.888Z,22.17
2019-01-14T01:11:05.815Z,22.06
2019-01-14T01:12:14.769Z,22.1
2019-01-14T01:13:23.966Z,22.1
2019-01-14T01:14:32.908Z,21.98
2019-01-14T01:15:42.362Z,22.12
2019-01-14T01:16:51.306Z,21.98
2019-01-14T01:18:00.724Z,21.98
2019-01-14T01:19:10.155Z,21.98
2019-01-14T01:20:19.840Z,21.98
2019-01-14T01:21:29.037Z,21.98
2019-01-14T01:22:38.215Z,22.06
2019-01-14T01:23:47.645Z,21.91
2019-01-14T01:24:56.839Z,21.99
2019-01-14T01:26:05.785Z,21.96
2019-01-14T01:27:15.218Z,21.98
2019-01-14T01:28:25.149Z,21.96
2019-01-14T01:29:34.586Z,21.92
2019-01-14T01:30:43.860Z,21.92
2019-01-14T01:31:52.783Z,21.94
2019-01-14T01:33:02.210Z,21.88
2019-01-14T01:34:11.168Z,21.92
2019-01-14T01:35:20.338Z,21.86
2019-01-14T01:36:36.360Z,21.9
2019-01-14T01:37:45.818Z,21.92
2019-01-14T01:38:55.008Z,21.86
2019-01-14T01:40:04.457Z,21.88
2019-01-14T01:41:13.153Z,21.82
2019-01-14T01:42:22.330Z,21.86
2019-01-14T01:43:31.538Z,21.79
2019-01-14T01:44:40.713Z,21.91
2019-01-14T01:45:49.879Z,21.91
2019-01-14T01:46:58.816Z,21.86
2019-01-14T01:48:08.003Z,21.91
2019-01-14T01:49:17.189Z,21.84
2019-01-14T01:50:26.855Z,21.74
2019-01-14T01:51:35.801Z,21.75
2019-01-14T01:52:45.245Z,21.74
2019-01-14T01:53:54.650Z,21.77
2019-01-14T01:55:04.324Z,21.8
2019-01-14T01:56:12.994Z,21.75
2019-01-14T01:57:22.178Z,21.74
2019-01-14T01:58:31.874Z,21.74
2019-01-14T01:59:41.054Z,21.8
2019-01-14T02:00:50.479Z,21.8
2019-01-14T02:01:59.414Z,21.79
2019-01-14T02:03:08.601Z,21.75
2019-01-14T02:04:18.043Z,21.72
2019-01-14T02:05:27.479Z,21.77
2019-01-14T02:06:43.619Z,21.72
2019-01-14T02:07:53.552Z,21.68
2019-01-14T02:09:03.476Z,21.72
2019-01-14T02:10:12.403Z,21.71
2019-01-14T02:11:21.364Z,21.74
2019-01-14T02:12:30.292Z,21.74
2019-01-14T02:13:39.729Z,21.69
2019-01-14T02:14:48.711Z,21.72
2019-01-14T02:15:58.399Z,21.68
2019-01-14T02:17:07.569Z,21.68
2019-01-14T02:18:17.014Z,21.67
2019-01-14T02:19:26.204Z,21.71
2019-01-14T02:20:35.901Z,21.69
2019-01-14T02:21:44.590Z,21.69
2019-01-14T02:22:54.272Z,21.65
2019-01-14T02:24:03.709Z,21.65
2019-01-14T02:25:12.642Z,21.68
2019-01-14T02:26:21.562Z,21.61
2019-01-14T02:27:30.502Z,21.59
2019-01-14T02:28:39.682Z,21.68
2019-01-14T02:29:49.106Z,21.61
2019-01-14T02:30:58.667Z,21.59
2019-01-14T02:32:08.091Z,21.52
2019-01-14T02:33:17.780Z,21.68
2019-01-14T02:34:26.966Z,21.61
2019-01-14T02:35:36.632Z,21.56
2019-01-14T02:36:53.277Z,21.52
2019-01-14T02:38:02.217Z,21.61
2019-01-14T02:39:11.391Z,21.54
2019-01-14T02:40:21.086Z,21.56
2019-01-14T02:41:30.774Z,21.52
2019-01-14T02:42:40.209Z,21.59
2019-01-14T02:43:50.128Z,21.59
2019-01-14T02:44:59.802Z,21.58
2019-01-14T02:46:09.498Z,21.54
2019-01-14T02:47:18.657Z,21.56
2019-01-14T02:48:28.409Z,21.54
2019-01-14T02:49:37.354Z,21.53
2019-01-14T02:50:47.088Z,21.56
2019-01-14T02:51:56.048Z,21.46
2019-01-14T02:53:05.771Z,21.47
2019-01-14T02:54:14.996Z,21.54
2019-01-14T02:55:24.728Z,21.54
2019-01-14T02:56:33.660Z,21.47
2019-01-14T02:57:43.092Z,21.49
2019-01-14T02:58:52.561Z,21.44
2019-01-14T03:00:01.755Z,21.44
2019-01-14T03:01:11.210Z,21.44
2019-01-14T03:02:20.893Z,21.49
2019-01-14T03:03:30.325Z,21.5
2019-01-14T03:04:39.503Z,21.5
2019-01-14T03:05:48.962Z,21.38
2019-01-14T03:07:02.515Z,21.44
2019-01-14T03:08:11.459Z,21.42
2019-01-14T03:09:20.891Z,21.5
2019-01-14T03:10:30.338Z,21.43
2019-01-14T03:11:39.566Z,21.44
2019-01-14T03:12:49.001Z,21.43
2019-01-14T03:13:58.221Z,21.4
2019-01-14T03:15:07.664Z,21.42
2019-01-14T03:16:16.868Z,21.47
2019-01-14T03:17:26.047Z,21.49
2019-01-14T03:18:35.235Z,21.43
2019-01-14T03:19:44.404Z,21.37
2019-01-14T03:20:54.092Z,21.47
2019-01-14T03:22:03.270Z,21.44
2019-01-14T03:23:12.976Z,21.34
2019-01-14T03:24:22.431Z,21.4
2019-01-14T03:25:32.398Z,21.35
2019-01-14T03:26:41.843Z,21.37
2019-01-14T03:27:51.043Z,21.35
2019-01-14T03:29:00.719Z,21.43
2019-01-14T03:30:10.711Z,21.34
2019-01-14T03:31:20.631Z,21.4
2019-01-14T03:32:30.117Z,21.38
2019-01-14T03:33:39.859Z,21.32
2019-01-14T03:34:49.058Z,21.35
2019-01-14T03:35:57.990Z,21.32
2019-01-14T03:37:10.276Z,21.32
2019-01-14T03:38:19.725Z,21.28
2019-01-14T03:39:29.166Z,21.25
2019-01-14T03:40:38.862Z,21.25
2019-01-14T03:41:48.329Z,21.31
2019-01-14T03:42:57.507Z,21.32
2019-01-14T03:44:06.683Z,21.28
2019-01-14T03:45:15.621Z,21.32
2019-01-14T03:46:24.556Z,21.34
2019-01-14T03:47:33.502Z,21.31
2019-01-14T03:48:43.184Z,21.32
2019-01-14T03:49:52.115Z,21.28
2019-01-14T03:51:01.305Z,21.28
2019-01-14T03:52:10.756Z,21.31
2019-01-14T03:53:19.953Z,21.27
2019-01-14T03:54:29.149Z,21.24
2019-01-14T03:55:38.852Z,21.28
2019-01-14T03:56:48.305Z,21.21
2019-01-14T03:57:57.731Z,21.24
2019-01-14T03:59:06.939Z,21.22
2019-01-14T04:00:16.372Z,21.22
2019-01-14T04:01:25.568Z,21.22
2019-01-14T04:02:34.765Z,21.22
2019-01-14T04:03:44.186Z,21.22
2019-01-14T04:04:53.622Z,21.17
2019-01-14T04:06:03.046Z,21.28
2019-01-14T04:07:18.538Z,21.28
2019-01-14T04:08:28.236Z,21.28
2019-01-14T04:09:37.693Z,21.25
2019-01-14T04:10:47.130Z,21.22
2019-01-14T04:11:57.069Z,21.22
2019-01-14T04:13:06.010Z,21.21
2019-01-14T04:14:15.951Z,21.22
2019-01-14T04:15:25.156Z,21.19
2019-01-14T04:16:34.844Z,21.19
2019-01-14T04:17:44.055Z,21.21
2019-01-14T04:18:53.495Z,21.22
2019-01-14T04:20:03.186Z,21.17
2019-01-14T04:21:13.105Z,21.19
2019-01-14T04:22:23.049Z,21.24
2019-01-14T04:23:32.746Z,21.21
2019-01-14T04:24:42.176Z,21.14
2019-01-14T04:25:51.866Z,21.17
2019-01-14T04:27:01.310Z,21.13
2019-01-14T04:28:11.003Z,21.14
2019-01-14T04:29:20.689Z,21.19
2019-01-14T04:30:29.659Z,21.14
2019-01-14T04:31:39.128Z,21.13
2019-01-14T04:32:48.843Z,21.13
2019-01-14T04:33:57.781Z,21.13
2019-01-14T04:35:06.956Z,21.13
2019-01-14T04:36:16.442Z,21.12
2019-01-14T04:37:26.392Z,21.09
2019-01-14T04:38:35.830Z,21.14
2019-01-14T04:39:45.020Z,21.1
2019-01-14T04:40:54.708Z,21.1
2019-01-14T04:42:03.883Z,21.13
2019-01-14T04:43:13.334Z,21.12
2019-01-14T04:44:22.526Z,21.07
2019-01-14T04:45:32.192Z,21.13
2019-01-14T04:46:41.719Z,21.09
2019-01-14T04:47:50.661Z,21.13
2019-01-14T04:48:59.834Z,21.12
2019-01-14T04:50:09.637Z,21.09
2019-01-14T04:51:18.831Z,21.1
2019-01-14T04:52:28.020Z,21.07
2019-01-14T04:53:37.487Z,21.06
2019-01-14T04:54:46.672Z,21.06
2019-01-14T04:55:56.142Z,21.07
2019-01-14T04:57:05.811Z,21.1
2019-01-14T04:58:15.484Z,21.06
2019-01-14T04:59:24.927Z,21.1
2019-01-14T05:00:34.733Z,21.01
2019-01-14T05:01:43.926Z,21.1
2019-01-14T05:02:53.603Z,21.1
2019-01-14T05:04:03.026Z,21.01
2019-01-14T05:05:12.814Z,21.09
2019-01-14T05:06:21.528Z,21.04
2019-01-14T05:07:34.682Z,20.99
2019-01-14T05:08:44.101Z,21.06
2019-01-14T05:09:53.284Z,20.99
2019-01-14T05:11:02.725Z,20.99
2019-01-14T05:12:12.221Z,20.97
2019-01-14T05:13:21.678Z,20.97
2019-01-14T05:14:30.864Z,20.94
2019-01-14T05:15:41.962Z,20.97
2019-01-14T05:16:51.415Z,20.99
2019-01-14T05:18:00.888Z,20.92
2019-01-14T05:19:10.107Z,20.95
2019-01-14T05:20:19.550Z,20.94
2019-01-14T05:21:29.232Z,20.94
2019-01-14T05:22:38.651Z,20.91
2019-01-14T05:23:47.908Z,20.92
2019-01-14T05:24:57.128Z,20.94
2019-01-14T05:26:06.840Z,20.94
2019-01-14T05:27:16.541Z,20.94
2019-01-14T05:28:25.715Z,20.89
2019-01-14T05:29:34.926Z,20.95
2019-01-14T05:30:44.864Z,20.95
2019-01-14T05:31:54.554Z,20.94
2019-01-14T05:33:03.499Z,20.92
2019-01-14T05:34:13.009Z,20.94
2019-01-14T05:35:22.701Z,20.94
2019-01-14T05:36:32.387Z,20.91
2019-01-14T05:37:42.680Z,20.92
2019-01-14T05:38:51.877Z,20.92
2019-01-14T05:40:01.569Z,20.89
2019-01-14T05:41:11.247Z,20.95
2019-01-14T05:42:20.681Z,20.84
2019-01-14T05:43:29.993Z,20.85
2019-01-14T05:44:39.428Z,20.89
2019-01-14T05:45:49.093Z,20.82
2019-01-14T05:46:58.059Z,20.87
2019-01-14T05:48:07.748Z,20.91
2019-01-14T05:49:16.933Z,20.84
2019-01-14T05:50:26.369Z,20.84
2019-01-14T05:51:35.544Z,20.85
2019-01-14T05:52:45.232Z,20.89
2019-01-14T05:53:55.364Z,20.84
2019-01-14T05:55:04.786Z,20.88
2019-01-14T05:56:14.472Z,20.85
2019-01-14T05:57:23.667Z,20.89
2019-01-14T05:58:32.599Z,20.84
2019-01-14T05:59:41.775Z,20.85
2019-01-14T06:00:50.956Z,20.88
2019-01-14T06:02:00.379Z,20.8
2019-01-14T06:03:09.807Z,20.82
2019-01-14T06:04:18.995Z,20.88
2019-01-14T06:05:27.673Z,20.82
2019-01-14T06:06:37.133Z,20.87
2019-01-14T06:07:49.685Z,20.92
2019-01-14T06:08:58.613Z,20.84
2019-01-14T06:10:07.545Z,20.87
2019-01-14T06:11:16.479Z,20.87
2019-01-14T06:12:26.433Z,20.84
2019-01-14T06:13:35.871Z,20.84
2019-01-14T06:14:45.358Z,20.88
2019-01-14T06:15:55.303Z,20.85
2019-01-14T06:17:04.756Z,20.85
2019-01-14T06:18:14.200Z,20.89
2019-01-14T06:19:23.377Z,20.85
2019-01-14T06:20:32.560Z,20.88
2019-01-14T06:21:42.521Z,20.85
2019-01-14T06:22:51.529Z,20.8
2019-01-14T06:24:00.475Z,20.82
2019-01-14T06:25:10.182Z,20.89
2019-01-14T06:26:19.361Z,20.88
2019-01-14T06:27:28.795Z,20.85
2019-01-14T06:28:37.978Z,20.77
2019-01-14T06:29:47.187Z,20.8
2019-01-14T06:30:56.372Z,20.8
2019-01-14T06:32:05.802Z,20.79
2019-01-14T06:33:15.516Z,20.74
2019-01-14T06:34:24.951Z,20.8
2019-01-14T06:35:34.370Z,20.76
2019-01-14T06:36:44.055Z,20.82
2019-01-14T06:37:57.215Z,20.85
2019-01-14T06:39:06.150Z,20.82
2019-01-14T06:40:15.577Z,20.8
2019-01-14T06:41:24.510Z,20.79
2019-01-14T06:42:33.692Z,20.76
2019-01-14T06:43:42.875Z,20.76
2019-01-14T06:44:52.091Z,20.85
2019-01-14T06:46:01.521Z,20.85
2019-01-14T06:47:10.955Z,20.84
2019-01-14T06:48:20.128Z,20.8
2019-01-14T06:49:29.303Z,20.77
2019-01-14T06:50:38.976Z,20.79
2019-01-14T06:51:47.923Z,20.8
2019-01-14T06:52:57.109Z,20.87
2019-01-14T06:54:06.047Z,20.76
2019-01-14T06:55:15.487Z,20.84
2019-01-14T06:56:25.479Z,20.8
2019-01-14T06:57:35.466Z,20.79
2019-01-14T06:58:45.202Z,20.8
2019-01-14T06:59:54.888Z,20.8
2019-01-14T07:01:04.360Z,20.87
2019-01-14T07:02:13.797Z,20.84
2019-01-14T07:03:23.251Z,20.8
2019-01-14T07:04:32.701Z,20.76
2019-01-14T07:05:42.397Z,20.85
2019-01-14T07:06:51.832Z,20.79
2019-01-14T07:08:04.702Z,20.76
2019-01-14T07:09:13.904Z,20.77
2019-01-14T07:10:23.588Z,20.74
2019-01-14T07:11:32.770Z,20.82
2019-01-14T07:12:42.206Z,20.84
2019-01-14T07:13:51.891Z,20.77
2019-01-14T07:15:01.300Z,20.74
2019-01-14T07:16:10.489Z,20.79
2019-01-14T07:17:19.923Z,20.79
2019-01-14T07:18:29.610Z,20.8
2019-01-14T07:19:38.568Z,20.77
2019-01-14T07:20:47.850Z,20.77
2019-01-14T07:21:57.608Z,20.77
2019-01-14T07:23:08.224Z,20.79
2019-01-14T07:24:18.337Z,20.85
2019-01-14T07:25:27.514Z,20.82
2019-01-14T07:26:36.729Z,20.76
2019-01-14T07:27:46.178Z,20.84
2019-01-14T07:28:55.119Z,20.79
2019-01-14T07:30:04.552Z,20.82
2019-01-14T07:31:14.275Z,20.76
2019-01-14T07:32:23.703Z,20.84
2019-01-14T07:33:33.161Z,20.77
2019-01-14T07:34:42.597Z,20.77
2019-01-14T07:35:52.320Z,20.8
2019-01-14T07:37:01.267Z,20.8
2019-01-14T07:38:11.632Z,20.77
2019-01-14T07:39:21.072Z,20.76
2019-01-14T07:40:30.501Z,20.82
2019-01-14T07:41:39.956Z,20.87
2019-01-14T07:42:49.150Z,20.85
2019-01-14T07:43:58.838Z,20.85
2019-01-14T07:45:08.025Z,20.8
2019-01-14T07:46:17.010Z,20.84
2019-01-14T07:47:26.187Z,20.77
2019-01-14T07:48:35.117Z,20.8
2019-01-14T07:49:44.585Z,20.74
2019-01-14T07:50:53.753Z,20.79
2019-01-14T07:52:02.687Z,20.74
2019-01-14T07:53:12.129Z,20.77
2019-01-14T07:54:21.310Z,20.66
2019-01-14T07:55:30.748Z,20.7
2019-01-14T07:56:40.195Z,20.64
2019-01-14T07:57:49.141Z,20.73
2019-01-14T07:58:58.840Z,20.7
2019-01-14T08:00:08.042Z,20.72
2019-01-14T08:01:17.725Z,20.66
2019-01-14T08:02:26.899Z,20.72
2019-01-14T08:03:36.389Z,20.74
2019-01-14T08:04:46.315Z,20.74
2019-01-14T08:05:55.487Z,20.67
2019-01-14T08:07:04.408Z,20.67
2019-01-14T08:08:18.911Z,20.73
2019-01-14T08:09:27.834Z,20.76
2019-01-14T08:10:36.770Z,20.66
2019-01-14T08:11:45.998Z,20.82
2019-01-14T08:12:55.433Z,20.8
2019-01-14T08:14:05.602Z,20.91
2019-01-14T08:15:14.798Z,20.95
2019-01-14T08:16:24.500Z,20.95
2019-01-14T08:17:33.663Z,21.04
2019-01-14T08:18:42.855Z,21.09
2019-01-14T08:19:52.301Z,21.13
2019-01-14T08:21:01.734Z,21.27
2019-01-14T08:22:10.679Z,21.22
2019-01-14T08:23:19.838Z,21.31
2019-01-14T08:24:28.766Z,21.37
2019-01-14T08:25:39.933Z,21.37
2019-01-14T08:26:49.389Z,21.4
2019-01-14T08:27:58.863Z,21.46
2019-01-14T08:29:07.556Z,21.4
2019-01-14T08:30:16.492Z,21.47
2019-01-14T08:31:25.445Z,21.43
2019-01-14T08:32:35.135Z,21.58
2019-01-14T08:33:43.819Z,21.54
2019-01-14T08:34:53.501Z,21.58
2019-01-14T08:36:02.702Z,21.53
2019-01-14T08:37:13.070Z,21.65
2019-01-14T08:38:26.178Z,21.61
2019-01-14T08:39:35.368Z,21.64
2019-01-14T08:40:44.332Z,21.65
2019-01-14T08:41:53.770Z,21.74
2019-01-14T08:43:02.969Z,21.83
2019-01-14T08:44:11.908Z,21.9
2019-01-14T08:45:21.357Z,21.91
2019-01-14T08:46:30.549Z,21.96
2019-01-14T08:47:39.999Z,21.9
2019-01-14T08:48:53.407Z,21.92
2019-01-14T08:50:02.850Z,21.99
2019-01-14T08:51:12.304Z,22.09
2019-01-14T08:52:21.979Z,22.09
2019-01-14T08:53:31.156Z,22.24
2019-01-14T08:54:41.338Z,22.21
2019-01-14T08:55:50.787Z,22.22
2019-01-14T08:56:59.957Z,22.28
2019-01-14T08:58:09.160Z,22.31
2019-01-14T08:59:19.116Z,22.33
2019-01-14T09:00:28.801Z,22.4
2019-01-14T09:01:38.021Z,22.45
2019-01-14T09:02:47.518Z,22.39
2019-01-14T09:03:57.041Z,22.45
2019-01-14T09:05:06.255Z,22.51
2019-01-14T09:06:15.939Z,22.55
2019-01-14T09:07:25.639Z,22.58
2019-01-14T09:08:35.329Z,22.55
2019-01-14T09:09:44.775Z,22.58
2019-01-14T09:10:53.962Z,22.6
2019-01-14T09:12:03.641Z,22.55
2019-01-14T09:13:12.837Z,22.58
2019-01-14T09:14:22.047Z,22.54
2019-01-14T09:15:31.244Z,22.51
2019-01-14T09:16:40.432Z,22.54
2019-01-14T09:17:49.879Z,22.54
2019-01-14T09:18:59.371Z,22.55
2019-01-14T09:20:08.560Z,22.43
2019-01-14T09:21:18.006Z,22.46
2019-01-14T09:22:27.220Z,22.49
2019-01-14T09:23:36.902Z,22.46
2019-01-14T09:24:46.145Z,22.4
2019-01-14T09:25:58.378Z,22.37
2019-01-14T09:27:07.830Z,22.45
2019-01-14T09:28:17.001Z,22.39
2019-01-14T09:29:25.941Z,22.39
2019-01-14T09:30:35.616Z,22.42
2019-01-14T09:31:44.542Z,22.33
2019-01-14T09:32:54.028Z,22.33
2019-01-14T09:34:03.223Z,22.25
2019-01-14T09:35:12.683Z,22.25
2019-01-14T09:36:22.110Z,22.28
2019-01-14T09:37:31.785Z,22.3
2019-01-14T09:38:40.746Z,22.31
2019-01-14T09:39:49.956Z,22.25
2019-01-14T09:40:59.403Z,22.22
2019-01-14T09:42:08.861Z,22.18
2019-01-14T09:43:17.784Z,22.2
2019-01-14T09:44:26.978Z,22.15
2019-01-14T09:45:36.427Z,22.21
2019-01-14T09:46:45.860Z,22.21
2019-01-14T09:47:55.320Z,22.22
2019-01-14T09:49:04.752Z,22.07
2019-01-14T09:50:14.204Z,22.17
2019-01-14T09:51:23.405Z,22.12
2019-01-14T09:52:33.142Z,22.1
2019-01-14T09:53:42.324Z,22.06
2019-01-14T09:54:51.501Z,22.05
2019-01-14T09:56:00.688Z,22.06
2019-01-14T09:57:09.693Z,22.03
2019-01-14T09:58:19.127Z,21.99
2019-01-14T09:59:28.546Z,22.02
2019-01-14T10:00:37.780Z,21.92
2019-01-14T10:01:46.998Z,21.92
2019-01-14T10:03:00.437Z,22
2019-01-14T10:04:09.126Z,21.98
2019-01-14T10:05:18.327Z,22.02
2019-01-14T10:06:28.044Z,21.9
2019-01-14T10:07:37.488Z,21.99
2019-01-14T10:08:47.798Z,21.88
2019-01-14T10:09:57.072Z,21.94
2019-01-14T10:11:06.534Z,21.94
2019-01-14T10:12:15.978Z,21.99
2019-01-14T10:13:25.429Z,21.96
2019-01-14T10:14:34.372Z,21.86
2019-01-14T10:15:43.802Z,21.88
2019-01-14T10:16:53.219Z,21.99
2019-01-14T10:18:02.648Z,21.91
2019-01-14T10:19:12.415Z,21.92
2019-01-14T10:20:21.861Z,21.84
2019-01-14T10:21:31.316Z,21.91
2019-01-14T10:22:40.871Z,21.92
2019-01-14T10:23:50.324Z,21.94
2019-01-14T10:25:00.290Z,21.92
2019-01-14T10:26:09.727Z,21.9
2019-01-14T10:27:18.901Z,21.82
2019-01-14T10:28:28.114Z,21.9
2019-01-14T10:29:37.323Z,21.9
2019-01-14T10:30:46.502Z,21.84
2019-01-14T10:31:55.950Z,21.74
2019-01-14T10:33:05.396Z,21.69
2019-01-14T10:34:14.362Z,21.82
2019-01-14T10:35:23.805Z,21.91
2019-01-14T10:36:33.264Z,21.84
2019-01-14T10:37:42.716Z,21.91
2019-01-14T10:38:55.351Z,21.92
2019-01-14T10:40:04.055Z,21.84
2019-01-14T10:41:13.743Z,22
2019-01-14T10:42:22.666Z,21.99
2019-01-14T10:43:32.092Z,21.92
2019-01-14T10:44:41.286Z,22.02
2019-01-14T10:45:50.224Z,21.94
2019-01-14T10:46:59.425Z,21.99
2019-01-14T10:48:09.144Z,22
2019-01-14T10:49:18.324Z,22
2019-01-14T10:50:27.746Z,22.14
2019-01-14T10:51:36.694Z,22.25
2019-01-14T10:52:45.889Z,22.22
2019-01-14T10:53:55.593Z,22.2
2019-01-14T10:55:12.051Z,22.17
2019-01-14T10:56:21.683Z,22.27
2019-01-14T10:57:30.923Z,22.27
2019-01-14T10:58:40.154Z,22.27
2019-01-14T10:59:49.592Z,22.28
2019-01-14T11:00:58.765Z,22.33
2019-01-14T11:02:07.952Z,22.25
2019-01-14T11:03:16.644Z,22.28
2019-01-14T11:04:25.835Z,22.31
2019-01-14T11:05:35.069Z,22.3
2019-01-14T11:06:44.838Z,22.27
2019-01-14T11:07:54.029Z,22.28
2019-01-14T11:09:10.450Z,22.28
2019-01-14T11:10:19.803Z,22.28
2019-01-14T11:11:28.987Z,22.22
2019-01-14T11:12:38.680Z,22.3
2019-01-14T11:13:48.141Z,22.3
2019-01-14T11:14:57.335Z,22.27
2019-01-14T11:16:10.341Z,22.27
2019-01-14T11:17:19.527Z,22.36
2019-01-14T11:18:28.725Z,22.31
2019-01-14T11:19:37.922Z,22.27
2019-01-14T11:20:47.382Z,22.21
2019-01-14T11:21:56.591Z,22.28
2019-01-14T11:23:05.827Z,22.21
2019-01-14T11:24:14.786Z,22.25
2019-01-14T11:25:23.476Z,22.21
2019-01-14T11:26:32.435Z,22.14
2019-01-14T11:27:41.114Z,22.22
2019-01-14T11:28:50.552Z,22.22
2019-01-14T11:29:59.760Z,22.21
2019-01-14T11:31:08.442Z,22.12
2019-01-14T11:32:17.393Z,22.17
2019-01-14T11:33:27.337Z,22.22
2019-01-14T11:34:36.779Z,22.17
2019-01-14T11:35:45.952Z,22.18
2019-01-14T11:36:55.152Z,22.18
2019-01-14T11:38:04.852Z,22.1
2019-01-14T11:39:14.542Z,22.06
2019-01-14T11:40:23.247Z,22.07
2019-01-14T11:41:32.199Z,22.07
2019-01-14T11:42:41.378Z,22.09
2019-01-14T11:43:50.579Z,22.02
2019-01-14T11:44:59.517Z,21.94
2019-01-14T11:46:08.217Z,22.03
2019-01-14T11:47:17.655Z,22
2019-01-14T11:48:26.858Z,22
2019-01-14T11:49:35.812Z,21.92
2019-01-14T11:50:45.007Z,21.96
2019-01-14T11:51:53.945Z,21.96
2019-01-14T11:53:02.890Z,21.99
2019-01-14T11:54:11.905Z,22.03
2019-01-14T11:55:21.621Z,22
2019-01-14T11:56:30.568Z,22.02
2019-01-14T11:57:39.780Z,21.96
2019-01-14T11:58:48.462Z,22
2019-01-14T11:59:57.899Z,21.92
2019-01-14T12:01:07.349Z,21.94
2019-01-14T12:02:16.533Z,21.99
2019-01-14T12:03:25.717Z,21.96
2019-01-14T12:04:34.660Z,21.96
2019-01-14T12:05:44.380Z,21.96
2019-01-14T12:06:53.319Z,21.99
2019-01-14T12:08:02.259Z,21.98
2019-01-14T12:09:17.133Z,21.88
2019-01-14T12:10:26.070Z,21.94
2019-01-14T12:11:35.799Z,21.9
2019-01-14T12:12:44.732Z,21.92
2019-01-14T12:13:53.674Z,21.9
2019-01-14T12:15:03.134Z,21.84
2019-01-14T12:16:12.328Z,21.92
2019-01-14T12:17:22.027Z,21.91
2019-01-14T12:18:31.218Z,21.92
2019-01-14T12:19:40.942Z,21.84
2019-01-14T12:20:49.897Z,21.98
2019-01-14T12:21:59.600Z,21.91
2019-01-14T12:23:08.333Z,21.94
2019-01-14T12:24:17.531Z,21.94
2019-01-14T12:25:26.982Z,21.88
2019-01-14T12:26:36.449Z,22.03
2019-01-14T12:27:45.647Z,21.96
2019-01-14T12:28:54.843Z,21.98
2019-01-14T12:30:04.064Z,21.99
2019-01-14T12:31:13.082Z,22.07
2019-01-14T12:32:22.263Z,22.07
2019-01-14T12:33:31.445Z,22.05
2019-01-14T12:34:40.645Z,22.25
2019-01-14T12:35:50.380Z,22.2
2019-01-14T12:36:59.326Z,22.21
2019-01-14T12:38:08.759Z,22.2
2019-01-14T12:39:24.503Z,22.27
2019-01-14T12:40:33.947Z,22.27
2019-01-14T12:41:42.903Z,22.28
2019-01-14T12:42:58.453Z,22.3
2019-01-14T12:44:08.130Z,22.35
2019-01-14T12:45:17.807Z,22.25
2019-01-14T12:46:26.761Z,22.37
2019-01-14T12:47:35.962Z,22.42
2019-01-14T12:48:45.403Z,22.36
2019-01-14T12:49:54.846Z,22.39
2019-01-14T12:51:04.799Z,22.33
2019-01-14T12:52:14.478Z,22.37
2019-01-14T12:53:23.910Z,22.39
2019-01-14T12:54:33.099Z,22.33
2019-01-14T12:55:42.074Z,22.36
2019-01-14T12:56:51.281Z,22.36
2019-01-14T12:58:00.721Z,22.42
2019-01-14T12:59:09.904Z,22.37
2019-01-14T13:00:19.580Z,22.36
2019-01-14T13:01:29.012Z,22.35
2019-01-14T13:02:38.439Z,22.35
2019-01-14T13:03:47.385Z,22.39
2019-01-14T13:04:56.884Z,22.33
2019-01-14T13:06:06.113Z,22.25
2019-01-14T13:07:15.062Z,22.35
2019-01-14T13:08:24.254Z,22.25
2019-01-14T13:09:33.726Z,22.27
2019-01-14T13:10:43.325Z,22.24
2019-01-14T13:11:52.317Z,22.33
2019-01-14T13:13:01.525Z,22.27
2019-01-14T13:14:10.977Z,22.2
2019-01-14T13:15:20.209Z,22.24
2019-01-14T13:16:29.927Z,22.2
2019-01-14T13:17:38.883Z,22.2
2019-01-14T13:18:47.832Z,22.22
2019-01-14T13:19:56.782Z,22.24
2019-01-14T13:21:06.699Z,22.18
2019-01-14T13:22:16.136Z,22.22
2019-01-14T13:23:25.828Z,22.2
2019-01-14T13:24:38.935Z,22.12
2019-01-14T13:25:48.118Z,22.15
2019-01-14T13:26:57.805Z,22.17
2019-01-14T13:28:07.041Z,22.18
2019-01-14T13:29:20.547Z,22.03
2019-01-14T13:30:29.979Z,22.02
2019-01-14T13:31:39.162Z,22.07
2019-01-14T13:32:47.836Z,22.06
2019-01-14T13:33:56.770Z,22.03
2019-01-14T13:35:05.968Z,22.05
2019-01-14T13:36:14.900Z,22.12
2019-01-14T13:37:24.112Z,22.07
2019-01-14T13:38:33.310Z,22.12
2019-01-14T13:39:43.036Z,22.02
2019-01-14T13:40:58.641Z,22.02
2019-01-14T13:42:08.144Z,21.99
2019-01-14T13:43:17.320Z,22
2019-01-14T13:44:26.757Z,22
2019-01-14T13:45:35.951Z,22.03
2019-01-14T13:46:45.149Z,21.99
2019-01-14T13:47:54.615Z,21.96
2019-01-14T13:49:03.332Z,21.92
2019-01-14T13:50:12.341Z,21.98
2019-01-14T13:51:21.856Z,21.96
2019-01-14T13:52:30.877Z,21.92
2019-01-14T13:53:39.807Z,21.99
2019-01-14T13:54:48.769Z,21.96
2019-01-14T13:56:04.037Z,21.92
2019-01-14T13:57:13.018Z,21.99
2019-01-14T13:58:22.009Z,21.99
2019-01-14T13:59:31.721Z,21.91
2019-01-14T14:00:40.652Z,21.96
2019-01-14T14:01:50.380Z,21.96
2019-01-14T14:02:59.592Z,21.98
2019-01-14T14:04:08.533Z,21.9
2019-01-14T14:05:17.774Z,21.92
2019-01-14T14:06:26.732Z,21.9
2019-01-14T14:07:36.187Z,21.84
2019-01-14T14:08:45.171Z,21.88
2019-01-14T14:09:54.628Z,21.96
2019-01-14T14:11:04.073Z,21.92
2019-01-14T14:12:13.510Z,21.9
2019-01-14T14:13:23.203Z,21.99
2019-01-14T14:14:32.627Z,22.05
2019-01-14T14:15:41.822Z,22
2019-01-14T14:16:50.743Z,21.94
2019-01-14T14:18:01.534Z,22.06
2019-01-14T14:19:10.454Z,21.96
2019-01-14T14:20:19.407Z,22.09
2019-01-14T14:21:28.841Z,22.06
2019-01-14T14:22:37.522Z,22.09
2019-01-14T14:23:46.959Z,22.07
2019-01-14T14:24:56.151Z,22.09
2019-01-14T14:26:05.892Z,22.03
2019-01-14T14:27:15.333Z,22.17
2019-01-14T14:28:24.561Z,22.1
2019-01-14T14:29:34.303Z,22.1
2019-01-14T14:30:43.754Z,22.2
2019-01-14T14:31:52.959Z,22.1
2019-01-14T14:33:02.171Z,22.2
2019-01-14T14:34:11.851Z,22.24
2019-01-14T14:35:21.089Z,22.2
2019-01-14T14:36:30.769Z,22.14
2019-01-14T14:37:39.970Z,22.21
2019-01-14T14:38:48.913Z,22.12
2019-01-14T14:39:58.342Z,22.25
2019-01-14T14:41:07.536Z,22.22
2019-01-14T14:42:16.213Z,22.21
2019-01-14T14:43:25.908Z,22.14
2019-01-14T14:44:35.585Z,22.15
2019-01-14T14:45:44.532Z,22.14
2019-01-14T14:46:54.221Z,22.03
2019-01-14T14:48:03.696Z,22.05
2019-01-14T14:49:12.892Z,22.05
2019-01-14T14:50:22.089Z,22.07
2019-01-14T14:51:31.529Z,22.14
2019-01-14T14:52:40.465Z,22.06
2019-01-14T14:53:50.371Z,22.09
2019-01-14T14:54:59.314Z,22.14
2019-01-14T14:56:08.283Z,22.1
2019-01-14T14:57:17.717Z,22.1
2019-01-14T14:58:26.680Z,22.07
2019-01-14T14:59:35.669Z,22.03